sensor_id;sensor_type;location;lat;lon;timestamp;temperature;humidity
5964;DHT22;69025;53.712;9.680;2023-04-03T00:01:09;20.60;76.10
5964;DHT22;69025;53.712;9.680;2023-04-03T00:03:36;20.60;76.10
5964;DHT22;69025;53.712;9.680;2023-04-03T00:06:03;20.60;76.00
5964;DHT22;69025;53.712;9.680;2023-04-03T00:08:29;20.60;76.10
5964;DHT22;69025;53.712;9.680;2023-04-03T00:10:58;20.60;76.10
5964;DHT22;69025;53.712;9.680;2023-04-03T00:13:24;20.60;76.00
5964;DHT22;69025;53.712;9.680;2023-04-03T00:15:50;20.60;76.00
5964;DHT22;69025;53.712;9.680;2023-04-03T00:18:16;20.60;76.00
5964;DHT22;69025;53.712;9.680;2023-04-03T00:20:42;20.60;76.00
5964;DHT22;69025;53.712;9.680;2023-04-03T00:23:08;20.60;76.00
5964;DHT22;69025;53.712;9.680;2023-04-03T00:25:34;20.60;76.10
5964;DHT22;69025;53.712;9.680;2023-04-03T00:28:00;20.50;75.90
5964;DHT22;69025;53.712;9.680;2023-04-03T00:30:26;20.50;75.90
5964;DHT22;69025;53.712;9.680;2023-04-03T00:32:52;20.50;75.90
5964;DHT22;69025;53.712;9.680;2023-04-03T00:35:19;20.50;75.90
5964;DHT22;69025;53.712;9.680;2023-04-03T00:37:45;20.50;75.90
5964;DHT22;69025;53.712;9.680;2023-04-03T00:40:14;20.50;75.90
5964;DHT22;69025;53.712;9.680;2023-04-03T00:42:41;20.50;75.90
5964;DHT22;69025;53.712;9.680;2023-04-03T00:47:36;20.50;75.80
5964;DHT22;69025;53.712;9.680;2023-04-03T00:50:04;20.50;75.90
5964;DHT22;69025;53.712;9.680;2023-04-03T00:52:31;20.50;75.90
5964;DHT22;69025;53.712;9.680;2023-04-03T00:55:02;20.50;75.90
5964;DHT22;69025;53.712;9.680;2023-04-03T00:57:30;20.50;75.90
5964;DHT22;69025;53.712;9.680;2023-04-03T01:00:01;20.50;75.90
5964;DHT22;69025;53.712;9.680;2023-04-03T01:02:28;20.50;75.80
5964;DHT22;69025;53.712;9.680;2023-04-03T01:04:53;20.40;75.80
5964;DHT22;69025;53.712;9.680;2023-04-03T01:07:22;20.40;75.80
5964;DHT22;69025;53.712;9.680;2023-04-03T01:09:52;20.40;75.80
5964;DHT22;69025;53.712;9.680;2023-04-03T01:12:20;20.40;75.70
5964;DHT22;69025;53.712;9.680;2023-04-03T01:14:49;20.40;75.70
5964;DHT22;69025;53.712;9.680;2023-04-03T01:20:26;20.40;75.70
5964;DHT22;69025;53.712;9.680;2023-04-03T01:25:43;20.40;75.80
5964;DHT22;69025;53.712;9.680;2023-04-03T01:28:31;20.40;75.80
5964;DHT22;69025;53.712;9.680;2023-04-03T01:31:19;20.40;75.70
5964;DHT22;69025;53.712;9.680;2023-04-03T01:33:45;20.40;75.80
5964;DHT22;69025;53.712;9.680;2023-04-03T01:36:16;20.40;75.70
5964;DHT22;69025;53.712;9.680;2023-04-03T01:38:42;20.40;75.70
5964;DHT22;69025;53.712;9.680;2023-04-03T01:41:07;20.40;75.70
5964;DHT22;69025;53.712;9.680;2023-04-03T01:43:33;20.30;75.60
5964;DHT22;69025;53.712;9.680;2023-04-03T01:45:58;20.40;75.70
5964;DHT22;69025;53.712;9.680;2023-04-03T01:48:24;20.40;75.70
5964;DHT22;69025;53.712;9.680;2023-04-03T01:50:50;20.30;75.60
5964;DHT22;69025;53.712;9.680;2023-04-03T01:53:15;20.30;75.60
5964;DHT22;69025;53.712;9.680;2023-04-03T01:55:41;20.30;75.60
5964;DHT22;69025;53.712;9.680;2023-04-03T01:58:07;20.30;75.60
5964;DHT22;69025;53.712;9.680;2023-04-03T02:00:32;20.30;75.60
5964;DHT22;69025;53.712;9.680;2023-04-03T02:02:58;20.30;75.60
5964;DHT22;69025;53.712;9.680;2023-04-03T02:05:23;20.30;75.50
5964;DHT22;69025;53.712;9.680;2023-04-03T02:07:49;20.30;75.60
5964;DHT22;69025;53.712;9.680;2023-04-03T02:10:15;20.30;75.50
5964;DHT22;69025;53.712;9.680;2023-04-03T02:12:41;20.30;75.50
5964;DHT22;69025;53.712;9.680;2023-04-03T02:15:07;20.30;75.50
5964;DHT22;69025;53.712;9.680;2023-04-03T02:17:32;20.30;75.50
5964;DHT22;69025;53.712;9.680;2023-04-03T02:19:58;20.30;75.50
5964;DHT22;69025;53.712;9.680;2023-04-03T02:22:24;20.30;75.50
5964;DHT22;69025;53.712;9.680;2023-04-03T02:24:49;20.30;75.50
5964;DHT22;69025;53.712;9.680;2023-04-03T02:27:15;20.20;75.40
5964;DHT22;69025;53.712;9.680;2023-04-03T02:29:41;20.30;75.50
5964;DHT22;69025;53.712;9.680;2023-04-03T02:32:06;20.30;75.40
5964;DHT22;69025;53.712;9.680;2023-04-03T02:34:32;20.30;75.50
5964;DHT22;69025;53.712;9.680;2023-04-03T02:36:58;20.30;75.40
5964;DHT22;69025;53.712;9.680;2023-04-03T02:39:23;20.30;75.50
5964;DHT22;69025;53.712;9.680;2023-04-03T02:41:49;20.30;75.50
5964;DHT22;69025;53.712;9.680;2023-04-03T02:44:15;20.30;75.40
5964;DHT22;69025;53.712;9.680;2023-04-03T02:46:40;20.30;75.50
5964;DHT22;69025;53.712;9.680;2023-04-03T02:49:06;20.20;75.30
5964;DHT22;69025;53.712;9.680;2023-04-03T02:51:32;20.30;75.40
5964;DHT22;69025;53.712;9.680;2023-04-03T02:53:58;20.30;75.40
5964;DHT22;69025;53.712;9.680;2023-04-03T02:56:23;20.30;76.30
5964;DHT22;69025;53.712;9.680;2023-04-03T02:58:49;20.20;75.30
5964;DHT22;69025;53.712;9.680;2023-04-03T03:01:15;20.20;75.30
5964;DHT22;69025;53.712;9.680;2023-04-03T03:03:40;20.20;75.30
5964;DHT22;69025;53.712;9.680;2023-04-03T03:06:08;20.20;75.40
5964;DHT22;69025;53.712;9.680;2023-04-03T03:08:35;20.20;75.30
5964;DHT22;69025;53.712;9.680;2023-04-03T03:11:01;20.20;75.30
5964;DHT22;69025;53.712;9.680;2023-04-03T03:13:27;20.20;75.20
5964;DHT22;69025;53.712;9.680;2023-04-03T03:15:53;20.20;75.20
5964;DHT22;69025;53.712;9.680;2023-04-03T03:18:18;20.20;75.20
5964;DHT22;69025;53.712;9.680;2023-04-03T03:20:44;20.20;75.20
5964;DHT22;69025;53.712;9.680;2023-04-03T03:23:10;20.20;75.20
5964;DHT22;69025;53.712;9.680;2023-04-03T03:25:39;20.20;75.20
5964;DHT22;69025;53.712;9.680;2023-04-03T03:28:05;20.20;75.20
5964;DHT22;69025;53.712;9.680;2023-04-03T03:30:31;20.20;75.20
5964;DHT22;69025;53.712;9.680;2023-04-03T03:32:57;20.20;75.30
5964;DHT22;69025;53.712;9.680;2023-04-03T03:35:22;20.20;75.20
5964;DHT22;69025;53.712;9.680;2023-04-03T03:37:48;20.20;75.20
5964;DHT22;69025;53.712;9.680;2023-04-03T03:40:14;20.10;75.10
5964;DHT22;69025;53.712;9.680;2023-04-03T03:42:39;20.20;75.20
5964;DHT22;69025;53.712;9.680;2023-04-03T03:45:06;20.20;75.20
5964;DHT22;69025;53.712;9.680;2023-04-03T03:47:32;20.10;75.10
5964;DHT22;69025;53.712;9.680;2023-04-03T03:49:57;20.10;75.10
5964;DHT22;69025;53.712;9.680;2023-04-03T03:52:23;20.10;75.10
5964;DHT22;69025;53.712;9.680;2023-04-03T03:54:48;20.20;75.20
5964;DHT22;69025;53.712;9.680;2023-04-03T03:57:14;20.10;75.00
5964;DHT22;69025;53.712;9.680;2023-04-03T03:59:40;20.10;75.00
5964;DHT22;69025;53.712;9.680;2023-04-03T04:02:07;20.10;75.00
5964;DHT22;69025;53.712;9.680;2023-04-03T04:04:33;20.10;75.00
5964;DHT22;69025;53.712;9.680;2023-04-03T04:06:59;20.20;75.10
5964;DHT22;69025;53.712;9.680;2023-04-03T04:09:26;20.10;75.10
5964;DHT22;69025;53.712;9.680;2023-04-03T04:11:52;20.10;75.00
5964;DHT22;69025;53.712;9.680;2023-04-03T04:14:18;20.20;75.20
5964;DHT22;69025;53.712;9.680;2023-04-03T04:16:46;20.10;75.00
5964;DHT22;69025;53.712;9.680;2023-04-03T04:19:11;20.10;75.00
5964;DHT22;69025;53.712;9.680;2023-04-03T04:21:37;20.10;75.00
5964;DHT22;69025;53.712;9.680;2023-04-03T04:24:03;20.10;74.90
5964;DHT22;69025;53.712;9.680;2023-04-03T04:26:28;20.10;74.90
5964;DHT22;69025;53.712;9.680;2023-04-03T04:28:54;20.10;75.00
5964;DHT22;69025;53.712;9.680;2023-04-03T04:31:19;20.10;74.90
5964;DHT22;69025;53.712;9.680;2023-04-03T04:33:45;20.10;75.80
5964;DHT22;69025;53.712;9.680;2023-04-03T04:36:11;20.10;75.00
5964;DHT22;69025;53.712;9.680;2023-04-03T04:38:36;20.10;74.90
5964;DHT22;69025;53.712;9.680;2023-04-03T04:41:02;20.10;74.90
5964;DHT22;69025;53.712;9.680;2023-04-03T04:43:28;20.00;74.80
5964;DHT22;69025;53.712;9.680;2023-04-03T04:46:05;20.10;74.90
5964;DHT22;69025;53.712;9.680;2023-04-03T04:48:31;20.10;74.90
5964;DHT22;69025;53.712;9.680;2023-04-03T04:50:57;20.10;74.90
5964;DHT22;69025;53.712;9.680;2023-04-03T04:53:22;20.10;74.90
5964;DHT22;69025;53.712;9.680;2023-04-03T04:55:48;20.10;74.90
5964;DHT22;69025;53.712;9.680;2023-04-03T04:58:13;20.10;74.80
5964;DHT22;69025;53.712;9.680;2023-04-03T05:00:39;20.10;74.80
5964;DHT22;69025;53.712;9.680;2023-04-03T05:03:05;20.10;74.80
5964;DHT22;69025;53.712;9.680;2023-04-03T05:05:31;20.10;74.80
5964;DHT22;69025;53.712;9.680;2023-04-03T05:07:56;20.00;74.70
5964;DHT22;69025;53.712;9.680;2023-04-03T05:10:22;20.00;74.70
5964;DHT22;69025;53.712;9.680;2023-04-03T05:12:48;20.00;74.70
5964;DHT22;69025;53.712;9.680;2023-04-03T05:15:13;20.00;74.70
5964;DHT22;69025;53.712;9.680;2023-04-03T05:17:39;20.00;74.70
5964;DHT22;69025;53.712;9.680;2023-04-03T05:20:06;20.00;74.70
5964;DHT22;69025;53.712;9.680;2023-04-03T05:22:32;20.00;74.70
5964;DHT22;69025;53.712;9.680;2023-04-03T05:24:57;20.10;74.80
5964;DHT22;69025;53.712;9.680;2023-04-03T05:27:23;20.10;74.70
5964;DHT22;69025;53.712;9.680;2023-04-03T05:29:49;20.00;74.70
5964;DHT22;69025;53.712;9.680;2023-04-03T05:32:15;20.00;74.70
5964;DHT22;69025;53.712;9.680;2023-04-03T05:34:41;20.10;74.80
5964;DHT22;69025;53.712;9.680;2023-04-03T05:37:07;20.00;74.70
5964;DHT22;69025;53.712;9.680;2023-04-03T05:39:33;20.00;74.70
5964;DHT22;69025;53.712;9.680;2023-04-03T05:41:59;20.10;74.70
5964;DHT22;69025;53.712;9.680;2023-04-03T05:44:25;20.00;74.70
5964;DHT22;69025;53.712;9.680;2023-04-03T05:46:50;20.00;74.60
5964;DHT22;69025;53.712;9.680;2023-04-03T05:49:16;20.10;74.70
5964;DHT22;69025;53.712;9.680;2023-04-03T05:51:42;20.00;74.70
5964;DHT22;69025;53.712;9.680;2023-04-03T05:56:43;20.00;74.60
5964;DHT22;69025;53.712;9.680;2023-04-03T05:59:09;20.00;74.60
5964;DHT22;69025;53.712;9.680;2023-04-03T06:01:35;20.00;74.50
5964;DHT22;69025;53.712;9.680;2023-04-03T06:04:00;20.10;74.60
5964;DHT22;69025;53.712;9.680;2023-04-03T06:06:43;20.10;74.60
5964;DHT22;69025;53.712;9.680;2023-04-03T06:09:09;20.00;74.60
5964;DHT22;69025;53.712;9.680;2023-04-03T06:11:34;20.00;74.60
5964;DHT22;69025;53.712;9.680;2023-04-03T06:14:00;20.00;74.60
5964;DHT22;69025;53.712;9.680;2023-04-03T06:16:26;20.00;74.50
5964;DHT22;69025;53.712;9.680;2023-04-03T06:18:52;20.00;74.60
5964;DHT22;69025;53.712;9.680;2023-04-03T06:21:17;20.10;74.60
5964;DHT22;69025;53.712;9.680;2023-04-03T06:23:43;20.00;74.50
5964;DHT22;69025;53.712;9.680;2023-04-03T06:26:08;20.10;74.60
5964;DHT22;69025;53.712;9.680;2023-04-03T06:28:34;20.00;74.60
5964;DHT22;69025;53.712;9.680;2023-04-03T06:31:00;20.00;74.50
5964;DHT22;69025;53.712;9.680;2023-04-03T06:33:25;20.10;74.60
5964;DHT22;69025;53.712;9.680;2023-04-03T06:35:57;20.00;74.50
5964;DHT22;69025;53.712;9.680;2023-04-03T06:38:23;20.00;74.50
5964;DHT22;69025;53.712;9.680;2023-04-03T06:40:49;20.00;74.50
5964;DHT22;69025;53.712;9.680;2023-04-03T06:43:14;20.10;74.50
5964;DHT22;69025;53.712;9.680;2023-04-03T06:45:40;20.00;74.50
5964;DHT22;69025;53.712;9.680;2023-04-03T06:48:06;20.00;74.80
5964;DHT22;69025;53.712;9.680;2023-04-03T06:50:31;20.00;74.70
5964;DHT22;69025;53.712;9.680;2023-04-03T06:52:57;20.00;74.80
5964;DHT22;69025;53.712;9.680;2023-04-03T06:55:23;20.10;75.10
5964;DHT22;69025;53.712;9.680;2023-04-03T06:57:49;20.10;75.20
5964;DHT22;69025;53.712;9.680;2023-04-03T07:00:14;20.10;75.40
5964;DHT22;69025;53.712;9.680;2023-04-03T07:02:41;20.10;76.20
5964;DHT22;69025;53.712;9.680;2023-04-03T07:05:07;20.10;75.30
5964;DHT22;69025;53.712;9.680;2023-04-03T07:07:34;20.10;75.40
5964;DHT22;69025;53.712;9.680;2023-04-03T07:10:00;20.10;75.30
5964;DHT22;69025;53.712;9.680;2023-04-03T07:12:26;20.10;75.30
5964;DHT22;69025;53.712;9.680;2023-04-03T07:14:51;20.10;75.40
5964;DHT22;69025;53.712;9.680;2023-04-03T07:17:17;20.10;75.40
5964;DHT22;69025;53.712;9.680;2023-04-03T07:19:44;20.20;75.40
5964;DHT22;69025;53.712;9.680;2023-04-03T07:22:09;20.20;75.50
5964;DHT22;69025;53.712;9.680;2023-04-03T07:24:36;20.30;75.70
5964;DHT22;69025;53.712;9.680;2023-04-03T07:27:02;20.30;75.70
5964;DHT22;69025;53.712;9.680;2023-04-03T07:29:28;20.30;75.70
5964;DHT22;69025;53.712;9.680;2023-04-03T07:31:54;20.30;75.70
5964;DHT22;69025;53.712;9.680;2023-04-03T07:34:20;20.30;75.80
5964;DHT22;69025;53.712;9.680;2023-04-03T07:36:46;20.30;77.20
5964;DHT22;69025;53.712;9.680;2023-04-03T07:39:12;20.30;76.20
5964;DHT22;69025;53.712;9.680;2023-04-03T07:41:37;20.40;76.30
5964;DHT22;69025;53.712;9.680;2023-04-03T07:44:03;20.40;76.30
5964;DHT22;69025;53.712;9.680;2023-04-03T07:46:31;20.40;76.30
5964;DHT22;69025;53.712;9.680;2023-04-03T07:48:56;20.50;76.50
5964;DHT22;69025;53.712;9.680;2023-04-03T07:51:22;20.40;76.30
5964;DHT22;69025;53.712;9.680;2023-04-03T07:53:49;20.50;76.60
5964;DHT22;69025;53.712;9.680;2023-04-03T07:56:16;20.50;77.20
5964;DHT22;69025;53.712;9.680;2023-04-03T07:58:42;20.50;77.90
5964;DHT22;69025;53.712;9.680;2023-04-03T08:01:08;20.50;76.80
5964;DHT22;69025;53.712;9.680;2023-04-03T08:03:33;20.60;77.20
5964;DHT22;69025;53.712;9.680;2023-04-03T08:06:04;20.60;77.10
5964;DHT22;69025;53.712;9.680;2023-04-03T08:08:30;20.60;77.20
5964;DHT22;69025;53.712;9.680;2023-04-03T08:10:58;20.60;77.40
5964;DHT22;69025;53.712;9.680;2023-04-03T08:13:24;20.70;77.60
5964;DHT22;69025;53.712;9.680;2023-04-03T08:15:51;20.70;77.60
5964;DHT22;69025;53.712;9.680;2023-04-03T08:18:17;20.70;77.60
5964;DHT22;69025;53.712;9.680;2023-04-03T08:20:43;20.70;77.70
5964;DHT22;69025;53.712;9.680;2023-04-03T08:23:09;20.70;77.70
5964;DHT22;69025;53.712;9.680;2023-04-03T08:25:40;20.70;77.80
5964;DHT22;69025;53.712;9.680;2023-04-03T08:28:06;20.80;78.00
5964;DHT22;69025;53.712;9.680;2023-04-03T08:30:32;20.70;78.10
5964;DHT22;69025;53.712;9.680;2023-04-03T08:33:00;20.80;78.40
5964;DHT22;69025;53.712;9.680;2023-04-03T08:35:27;20.80;78.50
5964;DHT22;69025;53.712;9.680;2023-04-03T08:37:52;20.80;78.40
5964;DHT22;69025;53.712;9.680;2023-04-03T08:40:18;20.80;78.40
5964;DHT22;69025;53.712;9.680;2023-04-03T08:45:45;20.90;78.60
5964;DHT22;69025;53.712;9.680;2023-04-03T08:48:17;20.90;78.80
5964;DHT22;69025;53.712;9.680;2023-04-03T08:50:51;20.90;78.60
5964;DHT22;69025;53.712;9.680;2023-04-03T08:53:20;20.90;78.70
5964;DHT22;69025;53.712;9.680;2023-04-03T08:55:49;20.90;79.00
5964;DHT22;69025;53.712;9.680;2023-04-03T08:58:23;20.90;78.90
5964;DHT22;69025;53.712;9.680;2023-04-03T09:00:54;20.90;79.00
5964;DHT22;69025;53.712;9.680;2023-04-03T09:03:21;20.90;79.00
5964;DHT22;69025;53.712;9.680;2023-04-03T09:05:49;21.00;79.20
5964;DHT22;69025;53.712;9.680;2023-04-03T09:09:02;21.00;79.40
5964;DHT22;69025;53.712;9.680;2023-04-03T09:11:25;21.00;79.40
5964;DHT22;69025;53.712;9.680;2023-04-03T09:17:03;21.00;79.40
5964;DHT22;69025;53.712;9.680;2023-04-03T09:22:41;21.00;79.40
5964;DHT22;69025;53.712;9.680;2023-04-03T09:25:31;21.00;79.50
5964;DHT22;69025;53.712;9.680;2023-04-03T09:28:01;21.10;79.80
5964;DHT22;69025;53.712;9.680;2023-04-03T09:30:28;21.10;79.90
5964;DHT22;69025;53.712;9.680;2023-04-03T09:32:56;21.10;79.70
5964;DHT22;69025;53.712;9.680;2023-04-03T09:40:38;21.10;79.10
5964;DHT22;69025;53.712;9.680;2023-04-03T09:43:34;21.10;79.00
5964;DHT22;69025;53.712;9.680;2023-04-03T09:46:25;21.10;78.80
5964;DHT22;69025;53.712;9.680;2023-04-03T09:48:58;21.20;78.90
5964;DHT22;69025;53.712;9.680;2023-04-03T09:51:27;21.10;78.70
5964;DHT22;69025;53.712;9.680;2023-04-03T09:53:53;21.10;78.60
5964;DHT22;69025;53.712;9.680;2023-04-03T09:56:26;21.10;78.50
5964;DHT22;69025;53.712;9.680;2023-04-03T10:01:32;21.10;78.30
5964;DHT22;69025;53.712;9.680;2023-04-03T10:04:17;21.20;78.40
5964;DHT22;69025;53.712;9.680;2023-04-03T10:06:44;21.20;78.20
5964;DHT22;69025;53.712;9.680;2023-04-03T10:12:01;21.10;78.00
5964;DHT22;69025;53.712;9.680;2023-04-03T10:14:28;21.20;78.10
5964;DHT22;69025;53.712;9.680;2023-04-03T10:17:04;21.20;78.10
5964;DHT22;69025;53.712;9.680;2023-04-03T10:22:19;21.20;78.30
5964;DHT22;69025;53.712;9.680;2023-04-03T10:24:52;21.20;78.60
5964;DHT22;69025;53.712;9.680;2023-04-03T10:27:29;21.20;78.70
5964;DHT22;69025;53.712;9.680;2023-04-03T10:30:04;21.20;78.90
5964;DHT22;69025;53.712;9.680;2023-04-03T10:35:25;21.30;79.20
5964;DHT22;69025;53.712;9.680;2023-04-03T18:07:57;21.60;80.00
5964;DHT22;69025;53.712;9.680;2023-04-03T18:10:24;21.60;80.80
5964;DHT22;69025;53.712;9.680;2023-04-03T18:12:51;21.60;80.90
5964;DHT22;69025;53.712;9.680;2023-04-03T18:15:17;21.60;80.60
5964;DHT22;69025;53.712;9.680;2023-04-03T18:17:43;21.60;80.20
5964;DHT22;69025;53.712;9.680;2023-04-03T18:20:11;21.70;80.40
5964;DHT22;69025;53.712;9.680;2023-04-03T18:22:39;21.70;81.00
5964;DHT22;69025;53.712;9.680;2023-04-03T18:25:06;21.70;80.30
5964;DHT22;69025;53.712;9.680;2023-04-03T18:27:32;21.90;80.40
5964;DHT22;69025;53.712;9.680;2023-04-03T18:30:07;21.80;80.00
5964;DHT22;69025;53.712;9.680;2023-04-03T18:32:33;21.90;79.90
5964;DHT22;69025;53.712;9.680;2023-04-03T18:34:59;21.80;78.60
5964;DHT22;69025;53.712;9.680;2023-04-03T18:37:25;21.90;78.10
5964;DHT22;69025;53.712;9.680;2023-04-03T18:39:52;21.90;78.00
5964;DHT22;69025;53.712;9.680;2023-04-03T18:42:21;21.90;78.30
5964;DHT22;69025;53.712;9.680;2023-04-03T18:44:51;21.90;78.30
5964;DHT22;69025;53.712;9.680;2023-04-03T18:47:18;21.90;78.20
5964;DHT22;69025;53.712;9.680;2023-04-03T18:49:44;22.00;78.30
5964;DHT22;69025;53.712;9.680;2023-04-03T18:52:10;22.00;78.10
5964;DHT22;69025;53.712;9.680;2023-04-03T18:54:37;22.00;78.00
5964;DHT22;69025;53.712;9.680;2023-04-03T18:57:03;22.00;78.00
5964;DHT22;69025;53.712;9.680;2023-04-03T18:59:29;22.00;77.90
5964;DHT22;69025;53.712;9.680;2023-04-03T19:01:55;22.00;77.80
5964;DHT22;69025;53.712;9.680;2023-04-03T19:04:22;22.10;77.70
5964;DHT22;69025;53.712;9.680;2023-04-03T19:06:48;22.00;77.50
5964;DHT22;69025;53.712;9.680;2023-04-03T19:09:13;22.00;77.40
5964;DHT22;69025;53.712;9.680;2023-04-03T19:11:39;22.00;77.30
5964;DHT22;69025;53.712;9.680;2023-04-03T19:14:05;22.10;77.40
5964;DHT22;69025;53.712;9.680;2023-04-03T19:16:32;22.10;77.30
5964;DHT22;69025;53.712;9.680;2023-04-03T19:19:00;22.10;77.20
5964;DHT22;69025;53.712;9.680;2023-04-03T19:21:26;22.10;77.20
5964;DHT22;69025;53.712;9.680;2023-04-03T19:23:52;22.00;77.00
5964;DHT22;69025;53.712;9.680;2023-04-03T19:26:18;22.00;76.80
5964;DHT22;69025;53.712;9.680;2023-04-03T19:28:43;22.00;76.90
5964;DHT22;69025;53.712;9.680;2023-04-03T19:31:13;22.00;76.80
5964;DHT22;69025;53.712;9.680;2023-04-03T19:33:39;22.00;76.80
5964;DHT22;69025;53.712;9.680;2023-04-03T19:36:07;22.00;76.80
5964;DHT22;69025;53.712;9.680;2023-04-03T19:38:34;22.00;76.70
5964;DHT22;69025;53.712;9.680;2023-04-03T19:41:00;22.00;76.70
5964;DHT22;69025;53.712;9.680;2023-04-03T19:43:27;22.00;76.60
5964;DHT22;69025;53.712;9.680;2023-04-03T19:45:53;22.00;76.60
5964;DHT22;69025;53.712;9.680;2023-04-03T19:48:19;22.00;76.60
5964;DHT22;69025;53.712;9.680;2023-04-03T19:50:44;21.90;76.50
5964;DHT22;69025;53.712;9.680;2023-04-03T19:53:10;21.90;76.50
5964;DHT22;69025;53.712;9.680;2023-04-03T19:55:38;21.90;76.50
5964;DHT22;69025;53.712;9.680;2023-04-03T19:58:04;21.90;76.50
5964;DHT22;69025;53.712;9.680;2023-04-03T20:00:30;21.90;76.40
5964;DHT22;69025;53.712;9.680;2023-04-03T20:02:56;21.90;76.50
5964;DHT22;69025;53.712;9.680;2023-04-03T20:05:22;21.90;76.40
5964;DHT22;69025;53.712;9.680;2023-04-03T20:07:48;21.90;76.40
5964;DHT22;69025;53.712;9.680;2023-04-03T20:10:15;21.90;76.40
5964;DHT22;69025;53.712;9.680;2023-04-03T20:12:41;21.90;76.50
5964;DHT22;69025;53.712;9.680;2023-04-03T20:15:07;21.90;76.40
5964;DHT22;69025;53.712;9.680;2023-04-03T20:17:33;21.90;76.40
5964;DHT22;69025;53.712;9.680;2023-04-03T20:20:00;21.80;75.60
5964;DHT22;69025;53.712;9.680;2023-04-03T20:22:28;21.80;76.30
5964;DHT22;69025;53.712;9.680;2023-04-03T20:24:54;21.80;76.30
5964;DHT22;69025;53.712;9.680;2023-04-03T20:27:20;21.80;76.30
5964;DHT22;69025;53.712;9.680;2023-04-03T20:29:46;21.80;76.30
5964;DHT22;69025;53.712;9.680;2023-04-03T20:32:12;21.80;76.30
5964;DHT22;69025;53.712;9.680;2023-04-03T20:34:39;21.80;76.30
5964;DHT22;69025;53.712;9.680;2023-04-03T20:37:05;21.80;76.30
5964;DHT22;69025;53.712;9.680;2023-04-03T20:39:31;21.80;76.30
5964;DHT22;69025;53.712;9.680;2023-04-03T20:41:57;21.70;76.20
5964;DHT22;69025;53.712;9.680;2023-04-03T20:44:22;21.80;76.30
5964;DHT22;69025;53.712;9.680;2023-04-03T20:46:48;21.80;76.40
5964;DHT22;69025;53.712;9.680;2023-04-03T20:49:14;21.80;76.50
5964;DHT22;69025;53.712;9.680;2023-04-03T20:51:40;21.80;76.60
5964;DHT22;69025;53.712;9.680;2023-04-03T20:54:06;21.80;76.60
5964;DHT22;69025;53.712;9.680;2023-04-03T20:56:34;21.80;76.80
5964;DHT22;69025;53.712;9.680;2023-04-03T20:59:01;21.80;76.70
5964;DHT22;69025;53.712;9.680;2023-04-03T21:01:29;21.80;76.70
5964;DHT22;69025;53.712;9.680;2023-04-03T21:04:00;21.70;76.70
5964;DHT22;69025;53.712;9.680;2023-04-03T21:21:03;21.70;76.00
5964;DHT22;69025;53.712;9.680;2023-04-03T21:23:30;21.70;76.20
5964;DHT22;69025;53.712;9.680;2023-04-03T21:25:58;21.70;76.30
5964;DHT22;69025;53.712;9.680;2023-04-03T21:28:24;21.60;76.30
5964;DHT22;69025;53.712;9.680;2023-04-03T21:30:51;21.60;76.40
5964;DHT22;69025;53.712;9.680;2023-04-03T21:33:16;21.60;76.30
5964;DHT22;69025;53.712;9.680;2023-04-03T21:35:42;21.60;76.50
5964;DHT22;69025;53.712;9.680;2023-04-03T21:38:07;21.60;76.50
5964;DHT22;69025;53.712;9.680;2023-04-03T21:40:33;21.60;76.50
5964;DHT22;69025;53.712;9.680;2023-04-03T21:42:59;21.60;76.50
5964;DHT22;69025;53.712;9.680;2023-04-03T21:45:25;21.60;76.60
5964;DHT22;69025;53.712;9.680;2023-04-03T21:47:51;21.60;76.50
5964;DHT22;69025;53.712;9.680;2023-04-03T21:50:17;21.60;76.50
5964;DHT22;69025;53.712;9.680;2023-04-03T21:52:43;21.60;76.60
5964;DHT22;69025;53.712;9.680;2023-04-03T21:55:09;21.60;76.60
5964;DHT22;69025;53.712;9.680;2023-04-03T21:57:35;21.60;76.60
5964;DHT22;69025;53.712;9.680;2023-04-03T22:00:01;21.50;76.50
5964;DHT22;69025;53.712;9.680;2023-04-03T22:02:28;21.60;76.60
5964;DHT22;69025;53.712;9.680;2023-04-03T22:04:56;21.50;76.50
5964;DHT22;69025;53.712;9.680;2023-04-03T22:07:22;21.50;76.50
5964;DHT22;69025;53.712;9.680;2023-04-03T22:09:48;21.50;76.40
5964;DHT22;69025;53.712;9.680;2023-04-03T22:12:14;21.40;76.30
5964;DHT22;69025;53.712;9.680;2023-04-03T22:14:40;21.50;76.50
5964;DHT22;69025;53.712;9.680;2023-04-03T22:17:06;21.50;76.50
5964;DHT22;69025;53.712;9.680;2023-04-03T22:19:32;21.50;76.40
5964;DHT22;69025;53.712;9.680;2023-04-03T22:21:58;21.40;76.30
5964;DHT22;69025;53.712;9.680;2023-04-03T22:24:26;21.40;76.30
5964;DHT22;69025;53.712;9.680;2023-04-03T22:26:52;21.40;76.30
5964;DHT22;69025;53.712;9.680;2023-04-03T22:29:18;21.40;76.30
5964;DHT22;69025;53.712;9.680;2023-04-03T22:31:43;21.40;76.30
5964;DHT22;69025;53.712;9.680;2023-04-03T22:34:09;21.40;76.30
5964;DHT22;69025;53.712;9.680;2023-04-03T22:36:35;21.40;76.30
5964;DHT22;69025;53.712;9.680;2023-04-03T22:39:01;21.40;76.20
5964;DHT22;69025;53.712;9.680;2023-04-03T22:41:27;21.40;76.30
5964;DHT22;69025;53.712;9.680;2023-04-03T22:43:53;21.30;76.10
5964;DHT22;69025;53.712;9.680;2023-04-03T22:46:19;21.30;76.10
5964;DHT22;69025;53.712;9.680;2023-04-03T22:48:45;21.30;76.00
5964;DHT22;69025;53.712;9.680;2023-04-03T22:51:11;21.30;76.00
5964;DHT22;69025;53.712;9.680;2023-04-03T22:53:37;21.30;76.10
5964;DHT22;69025;53.712;9.680;2023-04-03T22:56:06;22.50;77.30
5964;DHT22;69025;53.712;9.680;2023-04-03T22:58:33;21.30;76.10
5964;DHT22;69025;53.712;9.680;2023-04-03T23:01:12;21.30;76.90
5964;DHT22;69025;53.712;9.680;2023-04-03T23:03:40;21.20;75.90
5964;DHT22;69025;53.712;9.680;2023-04-03T23:06:07;21.30;76.10
5964;DHT22;69025;53.712;9.680;2023-04-03T23:08:33;21.20;75.90
5964;DHT22;69025;53.712;9.680;2023-04-03T23:10:59;21.20;76.80
5964;DHT22;69025;53.712;9.680;2023-04-03T23:13:26;21.20;75.90
5964;DHT22;69025;53.712;9.680;2023-04-03T23:15:56;21.20;75.90
5964;DHT22;69025;53.712;9.680;2023-04-03T23:18:22;21.20;75.90
5964;DHT22;69025;53.712;9.680;2023-04-03T23:20:48;21.20;75.90
5964;DHT22;69025;53.712;9.680;2023-04-03T23:23:19;21.20;75.90
5964;DHT22;69025;53.712;9.680;2023-04-03T23:25:50;21.20;75.90
5964;DHT22;69025;53.712;9.680;2023-04-03T23:28:16;21.20;75.90
5964;DHT22;69025;53.712;9.680;2023-04-03T23:30:41;21.20;75.90
5964;DHT22;69025;53.712;9.680;2023-04-03T23:33:08;21.20;75.90
5964;DHT22;69025;53.712;9.680;2023-04-03T23:35:33;21.10;75.80
5964;DHT22;69025;53.712;9.680;2023-04-03T23:37:59;21.10;75.80
5964;DHT22;69025;53.712;9.680;2023-04-03T23:40:25;21.10;75.80
5964;DHT22;69025;53.712;9.680;2023-04-03T23:42:52;21.10;75.80
5964;DHT22;69025;53.712;9.680;2023-04-03T23:45:17;21.10;75.80
5964;DHT22;69025;53.712;9.680;2023-04-03T23:47:43;21.10;76.70
5964;DHT22;69025;53.712;9.680;2023-04-03T23:50:09;21.10;75.80
5964;DHT22;69025;53.712;9.680;2023-04-03T23:52:34;18.90;73.50
5964;DHT22;69025;53.712;9.680;2023-04-03T23:55:00;21.10;75.70
5964;DHT22;69025;53.712;9.680;2023-04-03T23:57:26;21.10;76.60
5964;DHT22;69025;53.712;9.680;2023-04-03T23:59:52;21.10;75.70
